Townsend, Virginia
Current Conditions -  °F | °C
As of 4:58 AM on Friday 24 Oct 2014 (Local Time) from KLFI Reporting Station
Clear Clear  
Wind Chill: 54°   Ceiling: Unl
Heat Index: 54°   Visibility: 10mi
Dew Point: 44°   Wind: 10mph
Humidity: 70%   Direction: 300°WNW
Pressure: 29.93"   Gusts: NA
Location:  37.18°N, 75.96°W
Report Text: KLFI 240858Z AUTO 30009KT 10SM CLR 12/07 A2993 RMK AO2 SLP142 T01220068 53003 $
Loading
Personal Weather Stations






























Interactive Weather Map
Tropical Storm Tracking
New forecast layout! Learn more

10-Day Weather Forecast

Advertisements
Track Severe Weather on mobile